sensor_id;sensor_type;location;lat;lon;timestamp;P1;durP1;ratioP1;P2;durP2;ratioP2
16029;SDS011;34770;49.272;11.070;2023-05-13T00:00:26;3.83;;;3.42;;
16029;SDS011;34770;49.272;11.070;2023-05-13T00:02:52;5.25;;;2.75;;
16029;SDS011;34770;49.272;11.070;2023-05-13T00:05:18;3.78;;;3.15;;
16029;SDS011;34770;49.272;11.070;2023-05-13T00:07:43;5.28;;;3.10;;
16029;SDS011;34770;49.272;11.070;2023-05-13T00:10:09;3.08;;;2.88;;
16029;SDS011;34770;49.272;11.070;2023-05-13T00:12:35;3.90;;;3.53;;
16029;SDS011;34770;49.272;11.070;2023-05-13T00:15:01;4.43;;;3.15;;
16029;SDS011;34770;49.272;11.070;2023-05-13T00:17:27;4.05;;;3.63;;
16029;SDS011;34770;49.272;11.070;2023-05-13T00:19:53;5.53;;;3.13;;
16029;SDS011;34770;49.272;11.070;2023-05-13T00:22:18;4.53;;;3.33;;
16029;SDS011;34770;49.272;11.070;2023-05-13T00:24:44;5.10;;;3.10;;
16029;SDS011;34770;49.272;11.070;2023-05-13T00:27:09;4.85;;;3.65;;
16029;SDS011;34770;49.272;11.070;2023-05-13T00:29:35;4.25;;;3.40;;
16029;SDS011;34770;49.272;11.070;2023-05-13T00:32:01;3.80;;;2.95;;
16029;SDS011;34770;49.272;11.070;2023-05-13T00:34:27;4.32;;;3.88;;
16029;SDS011;34770;49.272;11.070;2023-05-13T00:36:52;3.88;;;3.58;;
16029;SDS011;34770;49.272;11.070;2023-05-13T00:39:18;5.97;;;4.03;;
16029;SDS011;34770;49.272;11.070;2023-05-13T00:41:44;3.40;;;3.10;;
16029;SDS011;34770;49.272;11.070;2023-05-13T00:44:09;3.22;;;2.92;;
16029;SDS011;34770;49.272;11.070;2023-05-13T00:46:35;3.72;;;3.42;;
16029;SDS011;34770;49.272;11.070;2023-05-13T00:49:00;3.78;;;3.47;;
16029;SDS011;34770;49.272;11.070;2023-05-13T00:51:28;5.78;;;3.63;;
16029;SDS011;34770;49.272;11.070;2023-05-13T00:53:56;3.78;;;3.38;;
16029;SDS011;34770;49.272;11.070;2023-05-13T00:56:23;4.18;;;3.45;;
16029;SDS011;34770;49.272;11.070;2023-05-13T00:58:49;4.07;;;3.67;;
16029;SDS011;34770;49.272;11.070;2023-05-13T01:02:18;4.57;;;4.18;;
16029;SDS011;34770;49.272;11.070;2023-05-13T01:07:40;3.28;;;3.08;;
16029;SDS011;34770;49.272;11.070;2023-05-13T01:12:47;4.00;;;3.60;;
16029;SDS011;34770;49.272;11.070;2023-05-13T01:15:21;3.80;;;3.47;;
16029;SDS011;34770;49.272;11.070;2023-05-13T01:20:29;5.03;;;3.60;;
16029;SDS011;34770;49.272;11.070;2023-05-13T01:22:56;3.25;;;3.00;;
16029;SDS011;34770;49.272;11.070;2023-05-13T01:25:22;3.28;;;2.97;;
16029;SDS011;34770;49.272;11.070;2023-05-13T01:27:49;4.93;;;3.55;;
16029;SDS011;34770;49.272;11.070;2023-05-13T01:30:15;3.97;;;3.58;;
16029;SDS011;34770;49.272;11.070;2023-05-13T01:32:41;3.65;;;3.35;;
16029;SDS011;34770;49.272;11.070;2023-05-13T01:35:08;4.55;;;3.58;;
16029;SDS011;34770;49.272;11.070;2023-05-13T01:37:36;3.50;;;3.20;;
16029;SDS011;34770;49.272;11.070;2023-05-13T01:40:02;3.25;;;2.90;;
16029;SDS011;34770;49.272;11.070;2023-05-13T01:42:29;4.25;;;3.03;;
16029;SDS011;34770;49.272;11.070;2023-05-13T01:44:54;4.00;;;3.35;;
16029;SDS011;34770;49.272;11.070;2023-05-13T01:47:20;4.78;;;3.10;;
16029;SDS011;34770;49.272;11.070;2023-05-13T01:49:45;3.47;;;3.17;;
16029;SDS011;34770;49.272;11.070;2023-05-13T01:52:11;3.38;;;3.13;;
16029;SDS011;34770;49.272;11.070;2023-05-13T01:54:36;3.80;;;3.15;;
16029;SDS011;34770;49.272;11.070;2023-05-13T01:57:02;4.20;;;3.20;;
16029;SDS011;34770;49.272;11.070;2023-05-13T01:59:27;3.58;;;3.28;;
16029;SDS011;34770;49.272;11.070;2023-05-13T02:01:53;4.05;;;3.25;;
16029;SDS011;34770;49.272;11.070;2023-05-13T02:04:18;3.38;;;3.05;;
16029;SDS011;34770;49.272;11.070;2023-05-13T02:06:44;3.05;;;2.85;;
16029;SDS011;34770;49.272;11.070;2023-05-13T02:09:09;3.05;;;2.85;;
16029;SDS011;34770;49.272;11.070;2023-05-13T02:11:35;5.05;;;3.80;;
16029;SDS011;34770;49.272;11.070;2023-05-13T02:14:00;5.28;;;3.45;;
16029;SDS011;34770;49.272;11.070;2023-05-13T02:16:26;3.45;;;3.15;;
16029;SDS011;34770;49.272;11.070;2023-05-13T02:18:51;3.47;;;3.05;;
16029;SDS011;34770;49.272;11.070;2023-05-13T02:21:17;4.28;;;3.42;;
16029;SDS011;34770;49.272;11.070;2023-05-13T02:23:42;4.85;;;3.35;;
16029;SDS011;34770;49.272;11.070;2023-05-13T02:26:08;3.55;;;3.25;;
16029;SDS011;34770;49.272;11.070;2023-05-13T02:28:33;3.83;;;3.38;;
16029;SDS011;34770;49.272;11.070;2023-05-13T02:30:59;5.75;;;3.85;;
16029;SDS011;34770;49.272;11.070;2023-05-13T02:33:24;3.75;;;3.45;;
16029;SDS011;34770;49.272;11.070;2023-05-13T02:35:50;4.15;;;3.63;;
16029;SDS011;34770;49.272;11.070;2023-05-13T02:38:16;3.55;;;3.20;;
16029;SDS011;34770;49.272;11.070;2023-05-13T02:40:41;3.97;;;3.67;;
16029;SDS011;34770;49.272;11.070;2023-05-13T02:43:07;4.05;;;3.75;;
16029;SDS011;34770;49.272;11.070;2023-05-13T02:45:32;3.53;;;3.22;;
16029;SDS011;34770;49.272;11.070;2023-05-13T02:47:58;4.35;;;3.78;;
16029;SDS011;34770;49.272;11.070;2023-05-13T02:50:23;5.20;;;4.80;;
16029;SDS011;34770;49.272;11.070;2023-05-13T02:52:49;5.63;;;3.75;;
16029;SDS011;34770;49.272;11.070;2023-05-13T02:55:14;3.75;;;3.45;;
16029;SDS011;34770;49.272;11.070;2023-05-13T02:57:41;3.50;;;3.20;;
16029;SDS011;34770;49.272;11.070;2023-05-13T03:00:07;3.97;;;3.55;;
16029;SDS011;34770;49.272;11.070;2023-05-13T03:02:33;3.40;;;3.20;;
16029;SDS011;34770;49.272;11.070;2023-05-13T03:04:59;3.92;;;3.53;;
16029;SDS011;34770;49.272;11.070;2023-05-13T03:07:25;3.53;;;3.25;;
16029;SDS011;34770;49.272;11.070;2023-05-13T03:09:50;3.90;;;3.60;;
16029;SDS011;34770;49.272;11.070;2023-05-13T03:12:16;4.43;;;3.05;;
16029;SDS011;34770;49.272;11.070;2023-05-13T03:14:41;5.90;;;3.80;;
16029;SDS011;34770;49.272;11.070;2023-05-13T03:17:08;5.97;;;3.65;;
16029;SDS011;34770;49.272;11.070;2023-05-13T03:19:35;3.20;;;2.97;;
16029;SDS011;34770;49.272;11.070;2023-05-13T03:22:01;3.70;;;3.40;;
16029;SDS011;34770;49.272;11.070;2023-05-13T03:24:27;4.32;;;3.72;;
16029;SDS011;34770;49.272;11.070;2023-05-13T03:26:53;4.10;;;3.55;;
16029;SDS011;34770;49.272;11.070;2023-05-13T03:29:21;4.00;;;3.70;;
16029;SDS011;34770;49.272;11.070;2023-05-13T03:31:47;3.50;;;3.30;;
16029;SDS011;34770;49.272;11.070;2023-05-13T03:34:13;4.70;;;3.65;;
16029;SDS011;34770;49.272;11.070;2023-05-13T03:36:39;5.15;;;3.40;;
16029;SDS011;34770;49.272;11.070;2023-05-13T03:39:04;4.43;;;3.50;;
16029;SDS011;34770;49.272;11.070;2023-05-13T03:41:30;4.43;;;4.03;;
16029;SDS011;34770;49.272;11.070;2023-05-13T03:43:55;4.22;;;3.30;;
16029;SDS011;34770;49.272;11.070;2023-05-13T03:46:21;4.30;;;3.95;;
16029;SDS011;34770;49.272;11.070;2023-05-13T03:48:47;4.10;;;3.50;;
16029;SDS011;34770;49.272;11.070;2023-05-13T03:51:13;5.65;;;3.05;;
16029;SDS011;34770;49.272;11.070;2023-05-13T03:53:39;3.85;;;3.55;;
16029;SDS011;34770;49.272;11.070;2023-05-13T03:56:05;4.05;;;3.45;;
16029;SDS011;34770;49.272;11.070;2023-05-13T03:58:30;3.95;;;3.65;;
16029;SDS011;34770;49.272;11.070;2023-05-13T04:00:56;3.95;;;3.63;;
16029;SDS011;34770;49.272;11.070;2023-05-13T04:03:21;5.38;;;4.40;;
16029;SDS011;34770;49.272;11.070;2023-05-13T04:05:47;4.43;;;4.03;;
16029;SDS011;34770;49.272;11.070;2023-05-13T04:08:13;4.22;;;3.83;;
16029;SDS011;34770;49.272;11.070;2023-05-13T04:10:39;4.80;;;3.75;;
16029;SDS011;34770;49.272;11.070;2023-05-13T04:13:04;4.53;;;4.13;;
16029;SDS011;34770;49.272;11.070;2023-05-13T04:15:30;3.92;;;3.63;;
16029;SDS011;34770;49.272;11.070;2023-05-13T04:17:56;4.65;;;4.28;;
16029;SDS011;34770;49.272;11.070;2023-05-13T04:20:22;7.05;;;4.80;;
16029;SDS011;34770;49.272;11.070;2023-05-13T04:22:47;6.45;;;4.47;;
16029;SDS011;34770;49.272;11.070;2023-05-13T04:25:13;8.68;;;5.00;;
16029;SDS011;34770;49.272;11.070;2023-05-13T04:27:38;4.88;;;4.38;;
16029;SDS011;34770;49.272;11.070;2023-05-13T04:30:04;4.43;;;4.03;;
16029;SDS011;34770;49.272;11.070;2023-05-13T04:32:30;4.53;;;4.13;;
16029;SDS011;34770;49.272;11.070;2023-05-13T04:34:56;4.70;;;3.85;;
16029;SDS011;34770;49.272;11.070;2023-05-13T04:37:21;5.13;;;3.92;;
16029;SDS011;34770;49.272;11.070;2023-05-13T04:39:47;7.03;;;4.50;;
16029;SDS011;34770;49.272;11.070;2023-05-13T04:42:12;4.97;;;4.57;;
16029;SDS011;34770;49.272;11.070;2023-05-13T04:44:38;4.55;;;4.15;;
16029;SDS011;34770;49.272;11.070;2023-05-13T04:47:04;5.95;;;4.40;;
16029;SDS011;34770;49.272;11.070;2023-05-13T04:49:29;6.55;;;4.72;;
16029;SDS011;34770;49.272;11.070;2023-05-13T04:51:55;7.43;;;4.07;;
16029;SDS011;34770;49.272;11.070;2023-05-13T04:54:21;5.05;;;4.55;;
16029;SDS011;34770;49.272;11.070;2023-05-13T04:56:47;6.85;;;4.20;;
16029;SDS011;34770;49.272;11.070;2023-05-13T04:59:12;5.07;;;4.57;;
16029;SDS011;34770;49.272;11.070;2023-05-13T05:01:38;3.85;;;3.55;;
16029;SDS011;34770;49.272;11.070;2023-05-13T05:04:04;4.25;;;3.85;;
16029;SDS011;34770;49.272;11.070;2023-05-13T05:06:30;4.40;;;4.00;;
16029;SDS011;34770;49.272;11.070;2023-05-13T05:08:56;5.35;;;4.75;;
16029;SDS011;34770;49.272;11.070;2023-05-13T05:11:22;4.88;;;4.47;;
16029;SDS011;34770;49.272;11.070;2023-05-13T05:13:48;7.53;;;4.70;;
16029;SDS011;34770;49.272;11.070;2023-05-13T05:16:13;4.22;;;3.92;;
16029;SDS011;34770;49.272;11.070;2023-05-13T05:18:39;8.05;;;4.85;;
16029;SDS011;34770;49.272;11.070;2023-05-13T05:21:07;5.53;;;4.75;;
16029;SDS011;34770;49.272;11.070;2023-05-13T05:23:33;5.05;;;4.55;;
16029;SDS011;34770;49.272;11.070;2023-05-13T05:25:58;5.50;;;4.70;;
16029;SDS011;34770;49.272;11.070;2023-05-13T05:28:24;6.13;;;4.82;;
16029;SDS011;34770;49.272;11.070;2023-05-13T05:30:50;5.82;;;4.60;;
16029;SDS011;34770;49.272;11.070;2023-05-13T05:33:15;6.35;;;5.07;;
16029;SDS011;34770;49.272;11.070;2023-05-13T05:35:42;4.95;;;4.45;;
16029;SDS011;34770;49.272;11.070;2023-05-13T05:38:07;6.25;;;4.80;;
16029;SDS011;34770;49.272;11.070;2023-05-13T05:40:38;5.78;;;4.88;;
16029;SDS011;34770;49.272;11.070;2023-05-13T05:43:05;6.65;;;4.47;;
16029;SDS011;34770;49.272;11.070;2023-05-13T05:45:34;4.82;;;4.43;;
16029;SDS011;34770;49.272;11.070;2023-05-13T05:48:00;4.95;;;4.55;;
16029;SDS011;34770;49.272;11.070;2023-05-13T05:50:27;5.45;;;4.88;;
16029;SDS011;34770;49.272;11.070;2023-05-13T05:52:52;7.30;;;4.90;;
16029;SDS011;34770;49.272;11.070;2023-05-13T05:55:18;8.07;;;5.40;;
16029;SDS011;34770;49.272;11.070;2023-05-13T05:57:44;5.00;;;4.50;;
16029;SDS011;34770;49.272;11.070;2023-05-13T06:00:10;7.40;;;5.45;;
16029;SDS011;34770;49.272;11.070;2023-05-13T06:02:36;6.05;;;5.25;;
16029;SDS011;34770;49.272;11.070;2023-05-13T06:05:02;5.43;;;4.72;;
16029;SDS011;34770;49.272;11.070;2023-05-13T06:07:27;4.97;;;4.53;;
16029;SDS011;34770;49.272;11.070;2023-05-13T06:09:53;5.07;;;4.68;;
16029;SDS011;34770;49.272;11.070;2023-05-13T06:12:19;4.82;;;4.35;;
16029;SDS011;34770;49.272;11.070;2023-05-13T06:14:44;5.28;;;4.88;;
16029;SDS011;34770;49.272;11.070;2023-05-13T06:17:10;5.30;;;4.80;;
16029;SDS011;34770;49.272;11.070;2023-05-13T06:19:38;5.15;;;4.65;;
16029;SDS011;34770;49.272;11.070;2023-05-13T06:22:06;8.15;;;5.40;;
16029;SDS011;34770;49.272;11.070;2023-05-13T06:24:33;5.93;;;4.22;;
16029;SDS011;34770;49.272;11.070;2023-05-13T06:26:58;6.20;;;4.75;;
16029;SDS011;34770;49.272;11.070;2023-05-13T06:29:23;5.00;;;4.50;;
16029;SDS011;34770;49.272;11.070;2023-05-13T06:31:49;5.00;;;4.30;;
16029;SDS011;34770;49.272;11.070;2023-05-13T06:34:14;5.43;;;4.93;;
16029;SDS011;34770;49.272;11.070;2023-05-13T06:36:41;4.85;;;4.45;;
16029;SDS011;34770;49.272;11.070;2023-05-13T06:39:07;5.85;;;3.83;;
16029;SDS011;34770;49.272;11.070;2023-05-13T06:41:34;5.57;;;5.07;;
16029;SDS011;34770;49.272;11.070;2023-05-13T06:43:59;4.45;;;4.15;;
16029;SDS011;34770;49.272;11.070;2023-05-13T06:46:25;5.55;;;5.05;;
16029;SDS011;34770;49.272;11.070;2023-05-13T06:48:50;5.55;;;4.75;;
16029;SDS011;34770;49.272;11.070;2023-05-13T06:51:17;4.45;;;3.60;;
16029;SDS011;34770;49.272;11.070;2023-05-13T06:53:43;4.70;;;4.28;;
16029;SDS011;34770;49.272;11.070;2023-05-13T06:56:08;4.70;;;4.20;;
16029;SDS011;34770;49.272;11.070;2023-05-13T06:58:34;5.97;;;3.97;;
16029;SDS011;34770;49.272;11.070;2023-05-13T07:01:00;5.60;;;4.25;;
16029;SDS011;34770;49.272;11.070;2023-05-13T07:03:26;7.15;;;3.90;;
16029;SDS011;34770;49.272;11.070;2023-05-13T07:05:51;4.53;;;4.13;;
16029;SDS011;34770;49.272;11.070;2023-05-13T07:08:17;5.47;;;3.97;;
16029;SDS011;34770;49.272;11.070;2023-05-13T07:10:42;4.82;;;4.30;;
16029;SDS011;34770;49.272;11.070;2023-05-13T07:13:09;4.68;;;4.28;;
16029;SDS011;34770;49.272;11.070;2023-05-13T07:15:35;4.90;;;4.43;;
16029;SDS011;34770;49.272;11.070;2023-05-13T07:18:00;4.30;;;3.90;;
16029;SDS011;34770;49.272;11.070;2023-05-13T07:20:26;4.28;;;3.65;;
16029;SDS011;34770;49.272;11.070;2023-05-13T07:22:51;4.68;;;4.18;;
16029;SDS011;34770;49.272;11.070;2023-05-13T07:25:17;6.57;;;4.10;;
16029;SDS011;34770;49.272;11.070;2023-05-13T07:27:43;6.05;;;4.40;;
16029;SDS011;34770;49.272;11.070;2023-05-13T07:30:09;4.82;;;4.43;;
16029;SDS011;34770;49.272;11.070;2023-05-13T07:32:36;5.05;;;4.57;;
16029;SDS011;34770;49.272;11.070;2023-05-13T07:35:02;4.28;;;3.83;;
16029;SDS011;34770;49.272;11.070;2023-05-13T07:37:28;5.75;;;4.93;;
16029;SDS011;34770;49.272;11.070;2023-05-13T07:39:54;7.13;;;4.68;;
16029;SDS011;34770;49.272;11.070;2023-05-13T07:42:19;5.28;;;4.20;;
16029;SDS011;34770;49.272;11.070;2023-05-13T07:44:45;4.40;;;4.00;;
16029;SDS011;34770;49.272;11.070;2023-05-13T07:47:11;4.40;;;4.00;;
16029;SDS011;34770;49.272;11.070;2023-05-13T07:49:36;4.35;;;3.95;;
16029;SDS011;34770;49.272;11.070;2023-05-13T07:52:02;4.35;;;3.95;;
16029;SDS011;34770;49.272;11.070;2023-05-13T07:54:28;4.60;;;4.03;;
16029;SDS011;34770;49.272;11.070;2023-05-13T07:56:53;4.13;;;3.45;;
16029;SDS011;34770;49.272;11.070;2023-05-13T07:59:19;4.03;;;3.63;;
16029;SDS011;34770;49.272;11.070;2023-05-13T08:01:44;6.00;;;3.40;;
16029;SDS011;34770;49.272;11.070;2023-05-13T08:04:10;4.82;;;3.30;;
16029;SDS011;34770;49.272;11.070;2023-05-13T08:06:35;5.10;;;3.70;;
16029;SDS011;34770;49.272;11.070;2023-05-13T08:09:01;5.28;;;3.90;;
16029;SDS011;34770;49.272;11.070;2023-05-13T08:11:27;3.70;;;3.38;;
16029;SDS011;34770;49.272;11.070;2023-05-13T08:13:53;3.72;;;3.42;;
16029;SDS011;34770;49.272;11.070;2023-05-13T08:16:18;4.55;;;4.15;;
16029;SDS011;34770;49.272;11.070;2023-05-13T08:18:44;5.30;;;3.15;;
16029;SDS011;34770;49.272;11.070;2023-05-13T08:21:09;4.07;;;3.78;;
16029;SDS011;34770;49.272;11.070;2023-05-13T08:23:35;5.07;;;3.40;;
16029;SDS011;34770;49.272;11.070;2023-05-13T08:26:02;3.97;;;3.60;;
16029;SDS011;34770;49.272;11.070;2023-05-13T08:28:28;5.15;;;3.42;;
16029;SDS011;34770;49.272;11.070;2023-05-13T08:30:54;3.60;;;3.30;;
16029;SDS011;34770;49.272;11.070;2023-05-13T08:33:26;5.53;;;3.78;;
16029;SDS011;34770;49.272;11.070;2023-05-13T08:35:53;3.67;;;3.38;;
16029;SDS011;34770;49.272;11.070;2023-05-13T08:38:18;4.53;;;3.20;;
16029;SDS011;34770;49.272;11.070;2023-05-13T08:40:44;5.38;;;3.97;;
16029;SDS011;34770;49.272;11.070;2023-05-13T08:43:10;3.58;;;3.22;;
16029;SDS011;34770;49.272;11.070;2023-05-13T08:45:40;3.60;;;3.30;;
16029;SDS011;34770;49.272;11.070;2023-05-13T08:48:09;9.38;;;5.50;;
16029;SDS011;34770;49.272;11.070;2023-05-13T08:50:35;11.65;;;7.15;;
16029;SDS011;34770;49.272;11.070;2023-05-13T08:53:01;5.88;;;4.30;;
16029;SDS011;34770;49.272;11.070;2023-05-13T08:55:27;4.70;;;4.30;;
16029;SDS011;34770;49.272;11.070;2023-05-13T08:57:52;5.72;;;4.78;;
16029;SDS011;34770;49.272;11.070;2023-05-13T09:00:18;6.45;;;3.85;;
16029;SDS011;34770;49.272;11.070;2023-05-13T09:02:44;4.43;;;3.70;;
16029;SDS011;34770;49.272;11.070;2023-05-13T09:05:10;4.32;;;3.58;;
16029;SDS011;34770;49.272;11.070;2023-05-13T09:07:36;11.77;;;5.03;;
16029;SDS011;34770;49.272;11.070;2023-05-13T09:10:03;3.67;;;3.38;;
16029;SDS011;34770;49.272;11.070;2023-05-13T09:15:16;3.65;;;3.35;;
16029;SDS011;34770;49.272;11.070;2023-05-13T09:17:43;4.45;;;3.30;;
16029;SDS011;34770;49.272;11.070;2023-05-13T09:20:12;3.47;;;3.20;;
16029;SDS011;34770;49.272;11.070;2023-05-13T09:22:40;3.35;;;3.05;;
16029;SDS011;34770;49.272;11.070;2023-05-13T09:25:10;4.40;;;2.80;;
16029;SDS011;34770;49.272;11.070;2023-05-13T09:30:04;3.80;;;2.85;;
16029;SDS011;34770;49.272;11.070;2023-05-13T09:32:31;2.85;;;2.53;;
16029;SDS011;34770;49.272;11.070;2023-05-13T09:34:56;3.03;;;2.70;;
16029;SDS011;34770;49.272;11.070;2023-05-13T09:37:40;3.17;;;2.78;;
16029;SDS011;34770;49.272;11.070;2023-05-13T09:40:10;3.10;;;2.80;;
16029;SDS011;34770;49.272;11.070;2023-05-13T09:42:39;2.50;;;2.30;;
16029;SDS011;34770;49.272;11.070;2023-05-13T09:45:06;3.60;;;2.70;;
16029;SDS011;34770;49.272;11.070;2023-05-13T09:47:34;3.22;;;2.90;;
16029;SDS011;34770;49.272;11.070;2023-05-13T09:50:00;3.15;;;2.92;;
16029;SDS011;34770;49.272;11.070;2023-05-13T09:52:30;2.40;;;2.15;;
16029;SDS011;34770;49.272;11.070;2023-05-13T09:54:57;2.92;;;2.50;;
16029;SDS011;34770;49.272;11.070;2023-05-13T09:57:25;3.03;;;2.72;;
16029;SDS011;34770;49.272;11.070;2023-05-13T09:59:55;3.70;;;2.67;;
16029;SDS011;34770;49.272;11.070;2023-05-13T10:02:24;3.03;;;2.70;;
16029;SDS011;34770;49.272;11.070;2023-05-13T10:04:51;2.78;;;2.58;;
16029;SDS011;34770;49.272;11.070;2023-05-13T10:07:18;3.15;;;2.90;;
16029;SDS011;34770;49.272;11.070;2023-05-13T10:09:48;3.35;;;3.05;;
16029;SDS011;34770;49.272;11.070;2023-05-13T10:12:21;3.78;;;3.28;;
16029;SDS011;34770;49.272;11.070;2023-05-13T10:14:50;3.38;;;3.08;;
16029;SDS011;34770;49.272;11.070;2023-05-13T10:17:18;2.90;;;2.70;;
16029;SDS011;34770;49.272;11.070;2023-05-13T10:19:45;2.65;;;2.45;;
16029;SDS011;34770;49.272;11.070;2023-05-13T10:22:13;4.75;;;2.72;;
16029;SDS011;34770;49.272;11.070;2023-05-13T10:24:39;3.08;;;2.78;;
16029;SDS011;34770;49.272;11.070;2023-05-13T10:27:06;2.75;;;2.55;;
16029;SDS011;34770;49.272;11.070;2023-05-13T10:29:35;2.85;;;2.65;;
16029;SDS011;34770;49.272;11.070;2023-05-13T10:32:02;2.60;;;2.40;;
16029;SDS011;34770;49.272;11.070;2023-05-13T10:34:29;2.72;;;2.47;;
16029;SDS011;34770;49.272;11.070;2023-05-13T10:42:41;2.53;;;2.33;;
16029;SDS011;34770;49.272;11.070;2023-05-13T10:45:09;2.58;;;2.30;;
16029;SDS011;34770;49.272;11.070;2023-05-13T10:47:35;1.92;;;1.83;;
16029;SDS011;34770;49.272;11.070;2023-05-13T10:50:05;2.60;;;2.40;;
16029;SDS011;34770;49.272;11.070;2023-05-13T10:52:47;2.40;;;2.20;;
16029;SDS011;34770;49.272;11.070;2023-05-13T10:55:17;2.20;;;2.10;;
16029;SDS011;34770;49.272;11.070;2023-05-13T10:58:29;2.17;;;2.00;;
16029;SDS011;34770;49.272;11.070;2023-05-13T11:00:37;3.97;;;2.67;;
16029;SDS011;34770;49.272;11.070;2023-05-13T11:03:15;2.20;;;2.10;;
16029;SDS011;34770;49.272;11.070;2023-05-13T11:05:59;2.90;;;2.05;;
16029;SDS011;34770;49.272;11.070;2023-05-13T11:08:48;1.80;;;1.70;;
16029;SDS011;34770;49.272;11.070;2023-05-13T11:13:49;2.33;;;2.13;;
16029;SDS011;34770;49.272;11.070;2023-05-13T11:16:16;2.40;;;2.20;;
16029;SDS011;34770;49.272;11.070;2023-05-13T11:18:42;2.30;;;2.10;;
16029;SDS011;34770;49.272;11.070;2023-05-13T11:21:08;2.30;;;2.10;;
16029;SDS011;34770;49.272;11.070;2023-05-13T11:23:56;2.38;;;2.17;;
16029;SDS011;34770;49.272;11.070;2023-05-13T11:26:22;2.45;;;2.10;;
16029;SDS011;34770;49.272;11.070;2023-05-13T11:29:04;3.10;;;2.00;;
16029;SDS011;34770;49.272;11.070;2023-05-13T11:32:03;2.22;;;2.03;;
16029;SDS011;34770;49.272;11.070;2023-05-13T11:34:23;2.65;;;2.20;;
16029;SDS011;34770;49.272;11.070;2023-05-13T11:36:56;2.10;;;1.90;;
16029;SDS011;34770;49.272;11.070;2023-05-13T11:39:31;2.25;;;2.05;;
16029;SDS011;34770;49.272;11.070;2023-05-13T11:41:57;4.03;;;2.30;;
16029;SDS011;34770;49.272;11.070;2023-05-13T11:44:25;2.38;;;2.17;;
16029;SDS011;34770;49.272;11.070;2023-05-13T11:46:55;2.13;;;2.03;;
16029;SDS011;34770;49.272;11.070;2023-05-13T11:49:36;3.40;;;2.53;;
16029;SDS011;34770;49.272;11.070;2023-05-13T11:52:09;4.85;;;2.97;;
16029;SDS011;34770;49.272;11.070;2023-05-13T11:54:39;3.45;;;2.15;;
16029;SDS011;34770;49.272;11.070;2023-05-13T11:57:12;2.83;;;2.53;;
16029;SDS011;34770;49.272;11.070;2023-05-13T11:59:39;2.40;;;2.20;;
16029;SDS011;34770;49.272;11.070;2023-05-13T12:02:05;2.50;;;2.10;;
16029;SDS011;34770;49.272;11.070;2023-05-13T12:04:30;2.55;;;2.28;;
16029;SDS011;34770;49.272;11.070;2023-05-13T12:06:56;2.60;;;2.13;;
16029;SDS011;34770;49.272;11.070;2023-05-13T12:09:22;4.88;;;2.30;;
16029;SDS011;34770;49.272;11.070;2023-05-13T12:11:52;4.57;;;2.33;;
16029;SDS011;34770;49.272;11.070;2023-05-13T12:14:18;5.32;;;2.97;;
16029;SDS011;34770;49.272;11.070;2023-05-13T12:16:45;2.45;;;2.25;;
16029;SDS011;34770;49.272;11.070;2023-05-13T12:19:11;3.40;;;2.33;;
16029;SDS011;34770;49.272;11.070;2023-05-13T12:21:37;2.65;;;2.28;;
16029;SDS011;34770;49.272;11.070;2023-05-13T12:24:16;2.53;;;2.20;;
16029;SDS011;34770;49.272;11.070;2023-05-13T12:26:45;2.88;;;2.25;;
16029;SDS011;34770;49.272;11.070;2023-05-13T12:29:11;1.95;;;1.85;;
16029;SDS011;34770;49.272;11.070;2023-05-13T12:31:36;2.42;;;2.22;;
16029;SDS011;34770;49.272;11.070;2023-05-13T12:34:02;2.28;;;1.90;;
16029;SDS011;34770;49.272;11.070;2023-05-13T12:36:29;1.70;;;1.60;;
16029;SDS011;34770;49.272;11.070;2023-05-13T12:39:01;2.97;;;1.90;;
16029;SDS011;34770;49.272;11.070;2023-05-13T12:41:31;1.98;;;1.88;;
16029;SDS011;34770;49.272;11.070;2023-05-13T12:43:59;2.00;;;1.90;;
16029;SDS011;34770;49.272;11.070;2023-05-13T12:46:25;2.13;;;1.60;;
16029;SDS011;34770;49.272;11.070;2023-05-13T12:48:55;1.88;;;1.77;;
16029;SDS011;34770;49.272;11.070;2023-05-13T12:51:24;3.30;;;1.75;;
16029;SDS011;34770;49.272;11.070;2023-05-13T12:53:50;1.63;;;1.52;;
16029;SDS011;34770;49.272;11.070;2023-05-13T12:56:18;3.03;;;2.30;;
16029;SDS011;34770;49.272;11.070;2023-05-13T12:58:47;1.80;;;1.70;;
16029;SDS011;34770;49.272;11.070;2023-05-13T13:01:14;3.20;;;1.90;;
16029;SDS011;34770;49.272;11.070;2023-05-13T13:03:40;2.00;;;1.70;;
16029;SDS011;34770;49.272;11.070;2023-05-13T13:06:05;2.00;;;1.80;;
16029;SDS011;34770;49.272;11.070;2023-05-13T13:08:31;3.20;;;1.85;;
16029;SDS011;34770;49.272;11.070;2023-05-13T13:10:57;1.77;;;1.67;;
16029;SDS011;34770;49.272;11.070;2023-05-13T13:13:24;1.98;;;1.83;;
16029;SDS011;34770;49.272;11.070;2023-05-13T13:15:49;2.03;;;1.92;;
16029;SDS011;34770;49.272;11.070;2023-05-13T13:18:15;2.47;;;1.98;;
16029;SDS011;34770;49.272;11.070;2023-05-13T13:20:40;1.60;;;1.50;;
16029;SDS011;34770;49.272;11.070;2023-05-13T13:23:06;1.80;;;1.70;;
16029;SDS011;34770;49.272;11.070;2023-05-13T13:25:33;5.25;;;2.20;;
16029;SDS011;34770;49.272;11.070;2023-05-13T13:27:58;1.65;;;1.55;;
16029;SDS011;34770;49.272;11.070;2023-05-13T13:30:24;1.50;;;1.30;;
16029;SDS011;34770;49.272;11.070;2023-05-13T13:32:49;2.50;;;1.73;;
16029;SDS011;34770;49.272;11.070;2023-05-13T13:35:14;3.28;;;1.60;;
16029;SDS011;34770;49.272;11.070;2023-05-13T13:37:40;1.98;;;1.48;;
16029;SDS011;34770;49.272;11.070;2023-05-13T13:40:06;3.22;;;1.95;;
16029;SDS011;34770;49.272;11.070;2023-05-13T13:42:32;1.80;;;1.70;;
16029;SDS011;34770;49.272;11.070;2023-05-13T13:44:57;1.40;;;1.30;;
16029;SDS011;34770;49.272;11.070;2023-05-13T13:47:23;1.85;;;1.75;;
16029;SDS011;34770;49.272;11.070;2023-05-13T13:49:48;2.42;;;1.80;;
16029;SDS011;34770;49.272;11.070;2023-05-13T13:52:15;1.70;;;1.60;;
16029;SDS011;34770;49.272;11.070;2023-05-13T13:54:41;1.80;;;1.70;;
16029;SDS011;34770;49.272;11.070;2023-05-13T13:57:07;2.35;;;1.45;;
16029;SDS011;34770;49.272;11.070;2023-05-13T13:59:32;1.60;;;1.50;;
16029;SDS011;34770;49.272;11.070;2023-05-13T14:01:58;1.60;;;1.50;;
16029;SDS011;34770;49.272;11.070;2023-05-13T14:04:23;1.40;;;1.35;;
16029;SDS011;34770;49.272;11.070;2023-05-13T14:06:51;1.70;;;1.60;;
16029;SDS011;34770;49.272;11.070;2023-05-13T14:09:17;1.75;;;1.65;;
16029;SDS011;34770;49.272;11.070;2023-05-13T14:11:43;1.60;;;1.50;;
16029;SDS011;34770;49.272;11.070;2023-05-13T14:14:09;3.05;;;1.73;;
16029;SDS011;34770;49.272;11.070;2023-05-13T14:16:35;1.70;;;1.60;;
16029;SDS011;34770;49.272;11.070;2023-05-13T14:19:00;1.60;;;1.50;;
16029;SDS011;34770;49.272;11.070;2023-05-13T14:21:26;2.10;;;1.50;;
16029;SDS011;34770;49.272;11.070;2023-05-13T14:23:51;1.58;;;1.48;;
16029;SDS011;34770;49.272;11.070;2023-05-13T14:26:17;2.03;;;1.85;;
16029;SDS011;34770;49.272;11.070;2023-05-13T14:28:42;3.15;;;2.85;;
16029;SDS011;34770;49.272;11.070;2023-05-13T14:31:08;1.70;;;1.60;;
16029;SDS011;34770;49.272;11.070;2023-05-13T14:33:34;1.58;;;1.48;;
16029;SDS011;34770;49.272;11.070;2023-05-13T14:36:02;1.77;;;1.60;;
16029;SDS011;34770;49.272;11.070;2023-05-13T14:38:32;1.50;;;1.40;;
16029;SDS011;34770;49.272;11.070;2023-05-13T14:41:03;2.67;;;1.65;;
16029;SDS011;34770;49.272;11.070;2023-05-13T14:43:29;1.40;;;1.30;;
16029;SDS011;34770;49.272;11.070;2023-05-13T14:45:55;1.63;;;1.52;;
16029;SDS011;34770;49.272;11.070;2023-05-13T14:48:20;1.50;;;1.40;;
16029;SDS011;34770;49.272;11.070;2023-05-13T14:50:46;1.85;;;1.70;;
16029;SDS011;34770;49.272;11.070;2023-05-13T14:53:11;1.75;;;1.63;;